createdAt,value
2018-07-20T00:00:08.512Z,51.73
2018-07-20T00:02:36.532Z,51.83
2018-07-20T00:05:05.344Z,52.26
2018-07-20T00:07:33.373Z,52.31
2018-07-20T00:10:01.398Z,52.13
2018-07-20T00:12:29.400Z,52.76
2018-07-20T00:14:57.449Z,52.06
2018-07-20T00:17:25.457Z,52.56
2018-07-20T00:19:53.710Z,52.60
2018-07-20T00:22:21.945Z,52.19
2018-07-20T00:24:49.967Z,52.50
2018-07-20T00:27:17.989Z,52.74
2018-07-20T00:29:46.050Z,52.38
2018-07-20T00:32:14.093Z,52.70
2018-07-20T00:34:42.109Z,52.22
2018-07-20T00:37:10.221Z,53.14
2018-07-20T00:39:38.296Z,53.17
2018-07-20T00:42:06.312Z,52.69
2018-07-20T00:44:34.435Z,53.43
2018-07-20T00:47:02.479Z,53.08
2018-07-20T00:49:30.488Z,53.08
2018-07-20T00:51:58.512Z,52.96
2018-07-20T00:54:26.529Z,53.40
2018-07-20T00:56:54.570Z,53.05
2018-07-20T00:59:22.608Z,53.28
2018-07-20T01:01:50.612Z,52.98
2018-07-20T01:04:19.021Z,53.63
2018-07-20T01:06:47.185Z,53.55
2018-07-20T01:09:15.234Z,53.72
2018-07-20T01:11:43.526Z,53.79
2018-07-20T01:14:11.557Z,54.55
2018-07-20T01:16:39.822Z,54.29
2018-07-20T01:19:07.627Z,54.76
2018-07-20T01:21:35.644Z,54.32
2018-07-20T01:24:03.847Z,55.18
2018-07-20T01:26:31.913Z,55.22
2018-07-20T01:29:00.202Z,55.01
2018-07-20T01:31:28.217Z,54.85
2018-07-20T01:33:56.284Z,55.56
2018-07-20T01:36:24.304Z,54.93
2018-07-20T01:38:52.338Z,54.95
2018-07-20T01:41:20.357Z,55.49
2018-07-20T01:43:48.443Z,55.34
2018-07-20T01:46:16.573Z,55.28
2018-07-20T01:48:44.890Z,55.62
2018-07-20T01:51:12.977Z,55.09
2018-07-20T01:53:41.006Z,55.07
2018-07-20T01:56:09.264Z,55.76
2018-07-20T01:58:37.284Z,55.96
2018-07-20T02:01:05.304Z,55.91
2018-07-20T02:03:33.338Z,55.17
2018-07-20T02:06:01.545Z,56.52
2018-07-20T02:08:29.569Z,55.54
2018-07-20T02:10:59.459Z,56.60
2018-07-20T02:13:27.633Z,56.84
2018-07-20T02:15:56.005Z,56.43
2018-07-20T02:18:24.182Z,56.46
2018-07-20T02:21:08.797Z,56.88
2018-07-20T02:23:36.833Z,56.79
2018-07-20T02:26:05.294Z,56.06
2018-07-20T02:28:33.352Z,57.13
2018-07-20T02:31:01.375Z,56.74
2018-07-20T02:33:29.404Z,56.86
2018-07-20T02:35:57.428Z,57.22
2018-07-20T02:38:25.525Z,57.05
2018-07-20T02:40:53.561Z,57.21
2018-07-20T02:43:21.608Z,57.74
2018-07-20T02:45:49.712Z,57.49
2018-07-20T02:48:17.835Z,58.13
2018-07-20T02:50:45.863Z,57.08
2018-07-20T02:53:13.909Z,57.41
2018-07-20T02:55:41.915Z,57.98
2018-07-20T02:58:09.941Z,57.66
2018-07-20T03:00:38.009Z,58.24
2018-07-20T03:03:06.378Z,57.49
2018-07-20T03:05:34.409Z,58.24
2018-07-20T03:08:02.451Z,58.21
2018-07-20T03:10:30.686Z,57.89
2018-07-20T03:12:58.847Z,57.69
2018-07-20T03:15:27.041Z,58.49
2018-07-20T03:17:55.068Z,58.32
2018-07-20T03:20:23.102Z,57.82
2018-07-20T03:22:51.155Z,58.03
2018-07-20T03:25:19.182Z,57.98
2018-07-20T03:27:47.209Z,57.92
2018-07-20T03:30:15.336Z,58.14
2018-07-20T03:32:43.420Z,58.76
2018-07-20T03:35:11.406Z,58.85
2018-07-20T03:37:39.428Z,58.68
2018-07-20T03:40:07.464Z,58.25
2018-07-20T03:42:35.515Z,59.31
2018-07-20T03:45:03.657Z,58.45
2018-07-20T03:47:31.686Z,58.20
2018-07-20T03:49:59.737Z,59.02
2018-07-20T03:52:27.792Z,58.96
2018-07-20T03:54:55.828Z,58.25
2018-07-20T03:57:23.868Z,58.81
2018-07-20T03:59:51.885Z,58.35
2018-07-20T04:02:19.939Z,58.43
2018-07-20T04:04:48.029Z,58.46
2018-07-20T04:07:16.081Z,59.20
2018-07-20T04:09:44.131Z,59.56
2018-07-20T04:12:12.305Z,59.07
2018-07-20T04:14:40.342Z,58.84
2018-07-20T04:17:08.847Z,59.07
2018-07-20T04:19:36.876Z,59.32
2018-07-20T04:22:05.012Z,59.59
2018-07-20T04:24:33.044Z,59.84
2018-07-20T04:27:01.072Z,59.13
2018-07-20T04:29:29.198Z,59.55
2018-07-20T04:31:57.287Z,60.03
2018-07-20T04:34:25.319Z,59.41
2018-07-20T04:36:53.888Z,59.01
2018-07-20T04:39:21.920Z,59.38
2018-07-20T04:41:49.980Z,59.80
2018-07-20T04:44:18.226Z,59.85
2018-07-20T04:46:46.253Z,60.14
2018-07-20T04:49:14.348Z,59.90
2018-07-20T04:51:42.720Z,59.75
2018-07-20T04:54:10.773Z,59.57
2018-07-20T04:56:39.056Z,60.49
2018-07-20T04:59:07.092Z,60.36
2018-07-20T05:01:35.131Z,59.43
2018-07-20T05:04:03.275Z,60.03
2018-07-20T05:06:31.333Z,60.09
2018-07-20T05:08:59.373Z,59.76
2018-07-20T05:11:27.629Z,59.74
2018-07-20T05:13:55.661Z,59.64
2018-07-20T05:16:23.752Z,59.63
2018-07-20T05:18:51.801Z,58.94
2018-07-20T05:21:19.840Z,59.92
2018-07-20T05:23:47.880Z,59.81
2018-07-20T05:26:15.913Z,59.45
2018-07-20T05:28:44.108Z,58.87
2018-07-20T05:31:12.209Z,59.24
2018-07-20T05:33:40.226Z,59.75
2018-07-20T05:36:08.354Z,58.93
2018-07-20T05:38:36.402Z,58.96
2018-07-20T05:41:04.951Z,59.19
2018-07-20T05:43:32.996Z,58.63
2018-07-20T05:46:01.043Z,59.49
2018-07-20T05:48:29.092Z,59.26
2018-07-20T05:50:57.225Z,59.30
2018-07-20T05:53:25.312Z,58.50
2018-07-20T05:55:53.377Z,58.48
2018-07-20T05:58:21.439Z,58.56
2018-07-20T06:00:49.688Z,58.25
2018-07-20T06:03:17.733Z,58.27
2018-07-20T06:05:45.774Z,57.92
2018-07-20T06:08:13.829Z,57.52
2018-07-20T06:10:41.889Z,57.41
2018-07-20T06:13:09.963Z,57.29
2018-07-20T06:15:38.000Z,56.47
2018-07-20T06:18:06.749Z,56.45
2018-07-20T06:20:34.780Z,55.93
2018-07-20T06:23:02.823Z,55.94
2018-07-20T06:25:30.854Z,55.28
2018-07-20T06:27:58.888Z,54.67
2018-07-20T06:30:26.916Z,53.73
2018-07-20T06:32:54.977Z,53.67
2018-07-20T06:35:23.016Z,53.92
2018-07-20T06:37:51.054Z,53.08
2018-07-20T06:40:19.692Z,52.29
2018-07-20T06:42:47.724Z,52.16
2018-07-20T06:45:15.845Z,51.40
2018-07-20T06:47:44.095Z,51.01
2018-07-20T06:50:17.073Z,50.25
2018-07-20T06:52:46.133Z,50.18
2018-07-20T06:55:14.285Z,49.43
2018-07-20T06:57:42.700Z,49.17
2018-07-20T07:00:11.038Z,48.82
2018-07-20T07:02:39.233Z,48.42
2018-07-20T07:05:08.576Z,48.27
2018-07-20T07:07:36.796Z,47.02
2018-07-20T07:10:05.452Z,47.08
2018-07-20T07:12:33.538Z,46.72
2018-07-20T07:15:01.633Z,46.65
2018-07-20T07:17:29.625Z,45.09
2018-07-20T07:19:57.748Z,45.50
2018-07-20T07:22:25.784Z,43.79
2018-07-20T07:24:54.064Z,44.36
2018-07-20T07:27:22.277Z,43.94
2018-07-20T07:29:50.305Z,43.24
2018-07-20T07:32:18.629Z,43.12
2018-07-20T07:34:46.674Z,43.18
2018-07-20T07:37:14.840Z,43.37
2018-07-20T07:39:42.900Z,42.36
2018-07-20T07:42:10.982Z,42.37
2018-07-20T07:44:38.998Z,42.16
2018-07-20T07:47:07.037Z,40.61
2018-07-20T07:49:35.215Z,41.00
2018-07-20T07:52:03.305Z,40.42
2018-07-20T07:54:31.377Z,40.14
2018-07-20T07:56:59.422Z,40.36
2018-07-20T07:59:27.588Z,40.41
2018-07-20T08:01:56.180Z,38.75
2018-07-20T08:04:24.261Z,38.64
2018-07-20T08:06:52.333Z,37.97
2018-07-20T08:09:20.409Z,38.65
2018-07-20T08:11:48.509Z,38.89
2018-07-20T08:14:16.553Z,38.10
2018-07-20T08:16:44.785Z,37.95
2018-07-20T08:19:12.832Z,37.04
2018-07-20T08:21:40.882Z,38.56
2018-07-20T08:24:08.933Z,38.48
2018-07-20T08:26:37.251Z,37.35
2018-07-20T08:29:05.508Z,37.83
2018-07-20T08:31:33.548Z,37.07
2018-07-20T08:34:01.577Z,37.05
2018-07-20T08:36:29.609Z,35.97
2018-07-20T08:38:57.628Z,35.05
2018-07-20T08:41:25.659Z,35.23
2018-07-20T08:43:53.702Z,34.59
2018-07-20T08:46:21.766Z,34.22
2018-07-20T08:48:49.845Z,34.33
2018-07-20T08:51:18.077Z,34.38
2018-07-20T08:53:46.093Z,33.89
2018-07-20T08:56:14.146Z,34.06
2018-07-20T08:58:42.189Z,33.42
2018-07-20T09:01:10.672Z,32.59
2018-07-20T09:03:51.729Z,31.89
2018-07-20T09:06:26.110Z,31.37
2018-07-20T09:08:54.129Z,32.52
2018-07-20T09:11:22.165Z,31.27
2018-07-20T09:13:57.872Z,31.74
2018-07-20T09:16:25.837Z,31.20
2018-07-20T09:18:53.869Z,31.54
2018-07-20T09:21:22.593Z,30.48
2018-07-20T09:23:50.606Z,31.12
2018-07-20T09:26:18.648Z,30.35
2018-07-20T09:28:46.704Z,30.29
2018-07-20T09:31:14.749Z,29.91
2018-07-20T09:33:42.780Z,31.32
2018-07-20T09:36:10.816Z,31.19
2018-07-20T09:38:38.901Z,30.46
2018-07-20T09:41:06.929Z,29.99
2018-07-20T09:43:35.229Z,30.47
2018-07-20T09:46:03.280Z,30.18
2018-07-20T09:48:31.299Z,30.33
2018-07-20T09:50:59.336Z,28.32
2018-07-20T09:53:27.377Z,29.89
2018-07-20T09:55:55.410Z,29.15
2018-07-20T09:58:23.496Z,28.64
2018-07-20T10:00:52.401Z,28.66
2018-07-20T10:03:21.497Z,28.71
2018-07-20T10:05:49.594Z,28.63
2018-07-20T10:08:18.838Z,29.33
2018-07-20T10:10:47.116Z,29.37
2018-07-20T10:13:15.173Z,27.58
2018-07-20T10:15:43.250Z,27.66
2018-07-20T10:18:11.283Z,27.62
2018-07-20T10:20:39.337Z,28.36
2018-07-20T10:23:07.355Z,28.29
2018-07-20T10:25:35.576Z,27.45
2018-07-20T10:28:03.666Z,27.56
2018-07-20T10:30:31.902Z,26.97
2018-07-20T10:33:00.015Z,26.73
2018-07-20T10:35:28.056Z,27.47
2018-07-20T10:37:56.116Z,27.49
2018-07-20T10:40:27.160Z,27.46
2018-07-20T10:42:56.789Z,28.17
2018-07-20T10:45:25.133Z,27.93
2018-07-20T10:47:53.162Z,28.33
2018-07-20T10:50:21.190Z,26.74
2018-07-20T10:52:49.516Z,26.59
2018-07-20T10:55:18.015Z,27.63
2018-07-20T10:57:46.661Z,27.29
2018-07-20T11:00:14.961Z,27.63
2018-07-20T11:02:42.981Z,26.59
2018-07-20T11:05:11.126Z,27.13
2018-07-20T11:07:39.165Z,26.24
2018-07-20T11:10:07.202Z,27.49
2018-07-20T11:12:35.550Z,27.41
2018-07-20T11:15:05.374Z,26.94
2018-07-20T11:17:33.497Z,26.84
2018-07-20T11:20:01.540Z,27.43
2018-07-20T11:22:29.560Z,27.44
2018-07-20T11:24:57.607Z,26.83
2018-07-20T11:27:26.188Z,27.17
2018-07-20T11:29:54.204Z,27.23
2018-07-20T11:32:22.277Z,26.24
2018-07-20T11:34:50.320Z,26.32
2018-07-20T11:37:18.461Z,26.00
2018-07-20T11:39:46.493Z,27.07
2018-07-20T11:42:14.543Z,26.45
2018-07-20T11:44:42.580Z,26.60
2018-07-20T11:47:10.593Z,26.64
2018-07-20T11:49:38.675Z,25.74
2018-07-20T11:52:07.097Z,26.83
2018-07-20T11:54:35.130Z,25.58
2018-07-20T11:57:03.303Z,25.81
2018-07-20T11:59:31.444Z,25.13
2018-07-20T12:01:59.547Z,25.48
2018-07-20T12:04:27.577Z,25.88
2018-07-20T12:06:55.693Z,25.10
2018-07-20T12:09:23.678Z,25.23
2018-07-20T12:11:51.879Z,25.81
2018-07-20T12:14:19.920Z,24.76
2018-07-20T12:16:47.985Z,25.82
2018-07-20T12:19:16.032Z,24.64
2018-07-20T12:21:44.076Z,24.78
2018-07-20T12:24:12.101Z,25.76
2018-07-20T12:26:40.146Z,26.08
2018-07-20T12:29:08.210Z,26.50
2018-07-20T12:31:36.389Z,25.69
2018-07-20T12:34:05.238Z,25.52
2018-07-20T12:36:33.225Z,26.31
2018-07-20T12:39:01.293Z,25.30
2018-07-20T12:41:29.334Z,24.92
2018-07-20T12:43:57.390Z,25.17
2018-07-20T12:46:25.678Z,25.32
2018-07-20T12:48:53.740Z,24.28
2018-07-20T12:51:21.793Z,25.82
2018-07-20T12:53:49.838Z,24.44
2018-07-20T12:56:17.893Z,26.17
2018-07-20T12:58:46.022Z,25.16
2018-07-20T13:01:14.800Z,25.24
2018-07-20T13:03:42.850Z,25.70
2018-07-20T13:06:10.905Z,25.37
2018-07-20T13:08:39.241Z,25.76
2018-07-20T13:11:07.259Z,25.67
2018-07-20T13:13:35.331Z,26.05
2018-07-20T13:16:05.137Z,24.85
2018-07-20T13:18:33.182Z,24.38
2018-07-20T13:21:01.226Z,24.96
2018-07-20T13:23:29.259Z,25.21
2018-07-20T13:25:57.292Z,25.05
2018-07-20T13:28:25.320Z,25.18
2018-07-20T13:30:53.345Z,25.39
2018-07-20T13:33:21.836Z,25.33
2018-07-20T13:35:49.868Z,25.04
2018-07-20T13:38:17.960Z,24.25
2018-07-20T13:40:46.028Z,24.51
2018-07-20T13:43:14.072Z,24.29
2018-07-20T13:45:42.132Z,25.09
2018-07-20T13:48:10.118Z,23.87
2018-07-20T13:50:38.164Z,24.66
2018-07-20T13:53:06.311Z,25.15
2018-07-20T13:55:34.301Z,24.49
2018-07-20T13:58:02.329Z,24.47
2018-07-20T14:00:30.599Z,25.02
2018-07-20T14:02:58.643Z,25.28
2018-07-20T14:05:26.679Z,24.62
2018-07-20T14:07:54.702Z,24.72
2018-07-20T14:10:22.756Z,24.37
2018-07-20T14:12:50.799Z,25.08
2018-07-20T14:15:19.076Z,24.97
2018-07-20T14:17:53.996Z,24.08
2018-07-20T14:20:22.031Z,25.05
2018-07-20T14:22:50.618Z,24.42
2018-07-20T14:25:18.652Z,24.25
2018-07-20T14:27:46.697Z,24.07
2018-07-20T14:30:14.737Z,23.85
2018-07-20T14:32:42.760Z,23.69
2018-07-20T14:35:10.788Z,22.88
2018-07-20T14:37:39.369Z,22.91
2018-07-20T14:40:07.920Z,24.04
2018-07-20T14:42:35.973Z,23.22
2018-07-20T14:45:04.373Z,22.83
2018-07-20T14:47:32.416Z,23.89
2018-07-20T14:50:00.447Z,23.02
2018-07-20T14:52:28.491Z,23.38
2018-07-20T14:54:56.595Z,23.58
2018-07-20T14:57:24.577Z,23.24
2018-07-20T14:59:52.633Z,23.71
2018-07-20T15:02:20.668Z,23.09
2018-07-20T15:04:48.766Z,23.63
2018-07-20T15:07:16.760Z,23.07
2018-07-20T15:09:44.782Z,22.98
2018-07-20T15:12:12.858Z,23.64
2018-07-20T15:14:40.857Z,22.82
2018-07-20T15:17:09.101Z,24.30
2018-07-20T15:19:37.129Z,23.82
2018-07-20T15:22:05.514Z,23.44
2018-07-20T15:24:33.594Z,22.96
2018-07-20T15:27:01.617Z,22.79
2018-07-20T15:29:29.658Z,23.17
2018-07-20T15:31:57.806Z,21.64
2018-07-20T15:34:25.824Z,22.37
2018-07-20T15:36:53.860Z,22.22
2018-07-20T15:39:22.246Z,21.40
2018-07-20T15:41:50.220Z,22.78
2018-07-20T15:44:18.266Z,21.97
2018-07-20T15:46:46.585Z,22.24
2018-07-20T15:49:14.642Z,22.40
2018-07-20T15:53:34.771Z,21.86
2018-07-20T15:54:10.740Z,21.14
2018-07-20T15:56:38.742Z,22.80
2018-07-20T15:59:06.774Z,22.49
2018-07-20T16:01:35.006Z,22.57
2018-07-20T16:04:03.046Z,22.75
2018-07-20T16:06:31.080Z,22.82
2018-07-20T16:08:59.132Z,22.69
2018-07-20T16:11:27.160Z,21.71
2018-07-20T16:13:55.206Z,23.16
2018-07-20T16:16:23.226Z,22.97
2018-07-20T16:18:51.252Z,22.07
2018-07-20T16:21:19.277Z,23.31
2018-07-20T16:23:47.630Z,23.73
2018-07-20T16:26:15.668Z,22.82
2018-07-20T16:28:43.704Z,22.98
2018-07-20T16:31:11.700Z,22.92
2018-07-20T16:33:39.745Z,22.94
2018-07-20T16:36:07.939Z,23.15
2018-07-20T16:38:36.008Z,23.86
2018-07-20T16:41:04.991Z,23.39
2018-07-20T16:43:33.010Z,23.68
2018-07-20T16:46:01.041Z,23.92
2018-07-20T16:48:29.065Z,23.56
2018-07-20T16:50:57.494Z,25.11
2018-07-20T16:53:25.519Z,23.86
2018-07-20T16:55:53.533Z,24.08
2018-07-20T16:58:21.654Z,25.22
2018-07-20T17:00:49.637Z,24.66
2018-07-20T17:03:17.662Z,24.08
2018-07-20T17:05:45.913Z,25.65
2018-07-20T17:08:14.144Z,24.83
2018-07-20T17:10:42.363Z,24.95
2018-07-20T17:13:10.409Z,24.36
2018-07-20T17:15:38.522Z,24.08
2018-07-20T17:18:06.559Z,25.66
2018-07-20T17:20:34.828Z,24.09
2018-07-20T17:23:03.136Z,24.41
2018-07-20T17:25:31.159Z,24.56
2018-07-20T17:27:59.280Z,24.31
2018-07-20T17:30:27.248Z,25.01
2018-07-20T17:32:55.276Z,24.53
2018-07-20T17:35:23.285Z,24.75
2018-07-20T17:37:51.317Z,25.98
2018-07-20T17:40:19.332Z,25.39
2018-07-20T17:42:47.353Z,26.60
2018-07-20T17:45:15.407Z,26.87
2018-07-20T17:47:43.405Z,26.43
2018-07-20T17:50:11.578Z,26.79
2018-07-20T17:52:39.618Z,27.23
2018-07-20T17:55:07.664Z,26.85
2018-07-20T17:57:35.696Z,28.11
2018-07-20T18:00:03.818Z,27.69
2018-07-20T18:02:31.852Z,27.65
2018-07-20T18:04:59.874Z,27.54
2018-07-20T18:07:27.916Z,27.65
2018-07-20T18:09:55.950Z,27.92
2018-07-20T18:12:23.976Z,28.47
2018-07-20T18:14:52.040Z,27.94
2018-07-20T18:17:20.072Z,29.51
2018-07-20T18:19:48.100Z,29.27
2018-07-20T18:22:16.228Z,28.35
2018-07-20T18:24:44.249Z,28.52
2018-07-20T18:27:13.215Z,29.70
2018-07-20T18:29:41.161Z,28.95
2018-07-20T18:32:09.273Z,28.99
2018-07-20T18:34:37.298Z,30.40
2018-07-20T18:37:05.344Z,30.56
2018-07-20T18:39:33.373Z,30.40
2018-07-20T18:42:01.408Z,29.65
2018-07-20T18:44:29.431Z,30.53
2018-07-20T18:46:57.454Z,29.66
2018-07-20T18:49:25.470Z,29.93
2018-07-20T18:51:53.542Z,30.04
2018-07-20T18:54:21.536Z,30.38
2018-07-20T18:56:49.553Z,30.06
2018-07-20T18:59:17.592Z,29.81
2018-07-20T19:01:45.610Z,29.66
2018-07-20T19:04:13.655Z,31.08
2018-07-20T19:06:41.721Z,30.44
2018-07-20T19:09:10.920Z,30.88
2018-07-20T19:11:39.078Z,30.06
2018-07-20T19:14:07.107Z,30.10
2018-07-20T19:16:35.170Z,30.96
2018-07-20T19:19:03.228Z,30.79
2018-07-20T19:21:31.293Z,30.54
2018-07-20T19:23:59.415Z,30.68
2018-07-20T19:26:27.352Z,30.93
2018-07-20T19:28:55.371Z,30.17
2018-07-20T19:31:23.449Z,30.11
2018-07-20T19:33:52.506Z,30.73
2018-07-20T19:36:20.529Z,30.37
2018-07-20T19:38:48.576Z,30.22
2018-07-20T19:41:16.841Z,31.46
2018-07-20T19:43:44.885Z,30.92
2018-07-20T19:46:12.904Z,31.94
2018-07-20T19:48:40.948Z,32.31
2018-07-20T19:51:09.009Z,31.89
2018-07-20T19:53:37.038Z,32.10
2018-07-20T19:56:05.058Z,32.83
2018-07-20T19:58:33.088Z,32.95
2018-07-20T20:01:13.337Z,32.82
2018-07-20T20:03:48.002Z,32.46
2018-07-20T20:06:30.996Z,33.57
2018-07-20T20:09:00.521Z,33.01
2018-07-20T20:11:28.543Z,32.77
2018-07-20T20:13:56.573Z,33.01
2018-07-20T20:16:24.595Z,33.96
2018-07-20T20:18:52.800Z,33.04
2018-07-20T20:21:20.817Z,33.32
2018-07-20T20:23:49.607Z,34.06
2018-07-20T20:26:17.789Z,34.59
2018-07-20T20:28:52.037Z,34.25
2018-07-20T20:31:20.068Z,34.86
2018-07-20T20:33:48.096Z,34.56
2018-07-20T20:36:16.384Z,35.51
2018-07-20T20:38:44.406Z,34.85
2018-07-20T20:41:12.452Z,35.90
2018-07-20T20:43:40.703Z,35.33
2018-07-20T20:46:08.770Z,36.21
2018-07-20T20:48:37.064Z,36.36
2018-07-20T20:51:05.399Z,37.18
2018-07-20T20:53:33.810Z,37.40
2018-07-20T20:56:01.837Z,38.02
2018-07-20T20:58:29.964Z,37.87
2018-07-20T21:00:58.948Z,37.99
2018-07-20T21:03:27.027Z,39.10
2018-07-20T21:05:55.081Z,39.18
2018-07-20T21:08:23.476Z,38.56
2018-07-20T21:10:51.526Z,39.01
2018-07-20T21:13:19.614Z,39.30
2018-07-20T21:15:47.645Z,39.89
2018-07-20T21:18:15.662Z,39.76
2018-07-20T21:20:43.678Z,39.97
2018-07-20T21:23:11.897Z,39.77
2018-07-20T21:25:39.948Z,40.03
2018-07-20T21:28:07.985Z,40.38
2018-07-20T21:30:36.152Z,40.76
2018-07-20T21:33:04.904Z,41.31
2018-07-20T21:35:33.165Z,40.48
2018-07-20T21:38:01.201Z,40.50
2018-07-20T21:40:29.247Z,41.07
2018-07-20T21:42:57.298Z,40.70
2018-07-20T21:45:25.770Z,41.73
2018-07-20T21:47:53.795Z,41.20
2018-07-20T21:50:21.884Z,41.62
2018-07-20T21:52:49.907Z,41.29
2018-07-20T21:55:18.067Z,41.30
2018-07-20T21:57:46.106Z,42.15
2018-07-20T22:00:15.717Z,41.59
2018-07-20T22:02:43.760Z,41.56
2018-07-20T22:05:11.792Z,42.17
2018-07-20T22:07:39.875Z,41.49
2018-07-20T22:10:08.393Z,42.33
2018-07-20T22:12:36.567Z,42.59
2018-07-20T22:15:05.442Z,42.51
2018-07-20T22:17:33.761Z,42.61
2018-07-20T22:20:01.826Z,43.23
2018-07-20T22:22:29.889Z,42.53
2018-07-20T22:24:57.971Z,42.28
2018-07-20T22:27:26.037Z,42.75
2018-07-20T22:29:54.133Z,43.44
2018-07-20T22:32:22.216Z,42.80
2018-07-20T22:34:50.565Z,43.76
2018-07-20T22:37:18.590Z,43.04
2018-07-20T22:39:46.621Z,43.67
2018-07-20T22:42:14.661Z,44.05
2018-07-20T22:44:42.957Z,43.99
2018-07-20T22:47:11.776Z,43.83
2018-07-20T22:49:39.820Z,43.16
2018-07-20T22:52:08.034Z,44.30
2018-07-20T22:54:36.093Z,43.23
2018-07-20T22:57:04.733Z,43.21
2018-07-20T22:59:32.782Z,42.78
2018-07-20T23:02:00.821Z,42.85
2018-07-20T23:04:28.941Z,42.81
2018-07-20T23:06:56.964Z,42.65
2018-07-20T23:09:25.008Z,43.66
2018-07-20T23:11:53.033Z,42.91
2018-07-20T23:14:21.080Z,43.07
2018-07-20T23:16:49.107Z,43.53
2018-07-20T23:19:17.148Z,43.70
2018-07-20T23:21:45.281Z,43.71
2018-07-20T23:24:13.310Z,44.20
2018-07-20T23:26:41.333Z,43.60
2018-07-20T23:29:09.416Z,44.92
2018-07-20T23:31:37.401Z,44.39
2018-07-20T23:34:05.702Z,44.45
2018-07-20T23:36:33.910Z,44.76
2018-07-20T23:39:01.941Z,44.44
2018-07-20T23:41:30.064Z,45.53
2018-07-20T23:43:58.120Z,45.49
2018-07-20T23:46:26.590Z,44.92
2018-07-20T23:48:54.614Z,44.99
2018-07-20T23:51:22.913Z,45.02
2018-07-20T23:53:50.944Z,45.16
2018-07-20T23:56:18.988Z,45.20
2018-07-20T23:58:47.014Z,45.45
